Time;durP1;ratioP1;P1;durP2;ratioP2;P2;SDS_P1;SDS_P2;PMS_P1;PMS_P2;Temp;Humidity;BMP_temperature;BMP_pressure;BME280_temperature;BME280_humidity;BME280_pressure;Samples;Min_cycle;Max_cycle;Signal;HPM_P1;HPM_P2
2023/04/11 00:01:59;;;;;;;;;;;8.20;72.10;;;;;;5103898;27;89603;-41
2023/04/11 00:04:25;;;;;;;;;;;8.20;72.10;;;;;;5104008;27;88258;-41
2023/04/11 00:06:50;;;;;;;;;;;8.20;72.10;;;;;;5104889;27;88186;-41
2023/04/11 00:09:16;;;;;;;;;;;8.20;72.20;;;;;;5104556;27;88088;-41
2023/04/11 00:11:42;;;;;;;;;;;8.20;72.10;;;;;;5104373;27;87007;-41
2023/04/11 00:14:07;;;;;;;;;;;8.20;72.10;;;;;;5103590;27;88705;-41
2023/04/11 00:16:33;;;;;;;;;;;8.20;72.10;;;;;;5104699;27;87998;-41
2023/04/11 00:18:59;;;;;;;;;;;8.20;72.10;;;;;;5104100;27;87173;-41
2023/04/11 00:21:24;;;;;;;;;;;8.10;72.10;;;;;;5107318;27;88940;-41
2023/04/11 00:23:53;;;;;;;;;;;8.20;72.10;;;;;;5104026;27;87029;-41
2023/04/11 00:26:20;;;;;;;;;;;8.20;72.20;;;;;;5104113;27;88542;-41
2023/04/11 00:28:46;;;;;;;;;;;8.10;72.20;;;;;;5103114;27;88044;-40
2023/04/11 00:31:12;;;;;;;;;;;8.10;72.20;;;;;;5104504;27;87155;-41
2023/04/11 00:33:38;;;;;;;;;;;8.10;72.10;;;;;;5100140;27;88821;-41
2023/04/11 00:36:03;;;;;;;;;;;8.10;72.10;;;;;;5103874;27;89816;-41
2023/04/11 00:38:29;;;;;;;;;;;8.10;72.10;;;;;;5103833;27;87596;-41
2023/04/11 00:40:54;;;;;;;;;;;8.10;72.20;;;;;;5104126;27;88045;-41
2023/04/11 00:43:20;;;;;;;;;;;8.10;72.20;;;;;;5106901;27;88237;-41
2023/04/11 00:45:46;;;;;;;;;;;8.10;72.10;;;;;;5104422;27;88874;-41
2023/04/11 00:48:11;;;;;;;;;;;8.10;72.20;;;;;;5104032;27;88047;-41
2023/04/11 00:50:40;;;;;;;;;;;8.10;72.20;;;;;;5104030;27;87668;-41
2023/04/11 00:53:07;;;;;;;;;;;8.10;72.20;;;;;;5103249;27;88684;-41
2023/04/11 00:55:33;;;;;;;;;;;8.10;72.20;;;;;;5101076;27;90922;-41
2023/04/11 00:57:59;;;;;;;;;;;8.10;72.20;;;;;;5103516;27;87168;-41
2023/04/11 01:00:25;;;;;;;;;;;8.10;72.20;;;;;;5103868;27;87693;-40
2023/04/11 01:02:51;;;;;;;;;;;8.10;72.20;;;;;;5102730;27;89882;-41
2023/04/11 01:05:17;;;;;;;;;;;8.10;72.20;;;;;;5106450;27;87235;-41
2023/04/11 01:07:45;;;;;;;;;;;8.00;72.20;;;;;;5099372;27;89575;-41
2023/04/11 01:10:11;;;;;;;;;;;8.00;72.20;;;;;;5103510;27;86383;-41
2023/04/11 01:12:37;;;;;;;;;;;8.10;72.30;;;;;;5103352;27;88188;-41
2023/04/11 01:15:03;;;;;;;;;;;8.00;72.30;;;;;;5098182;27;88984;-41
2023/04/11 01:17:29;;;;;;;;;;;8.00;72.30;;;;;;5102842;27;88040;-41
2023/04/11 01:19:54;;;;;;;;;;;8.00;72.30;;;;;;5103262;27;89933;-41
2023/04/11 01:22:21;;;;;;;;;;;8.00;72.30;;;;;;5102985;27;89886;-41
2023/04/11 01:24:47;;;;;;;;;;;8.00;72.40;;;;;;5103062;27;87147;-41
2023/04/11 01:27:13;;;;;;;;;;;8.00;72.90;;;;;;5106081;27;87689;-41
2023/04/11 01:29:38;;;;;;;;;;;8.00;72.40;;;;;;5103623;27;87110;-41
2023/04/11 01:32:04;;;;;;;;;;;8.00;72.40;;;;;;5103112;27;88110;-41
2023/04/11 01:34:31;;;;;;;;;;;8.00;72.90;;;;;;5103313;27;88435;-41
2023/04/11 01:36:57;;;;;;;;;;;8.00;72.40;;;;;;5103516;27;87128;-41
2023/04/11 01:39:22;;;;;;;;;;;8.00;72.40;;;;;;5103361;27;87480;-41
2023/04/11 01:41:48;;;;;;;;;;;8.00;72.40;;;;;;5102127;27;90360;-41
2023/04/11 01:44:14;;;;;;;;;;;8.00;72.40;;;;;;5099184;27;86971;-41
2023/04/11 01:46:40;;;;;;;;;;;8.00;72.40;;;;;;5105419;27;88931;-40
2023/04/11 01:49:05;;;;;;;;;;;8.00;72.30;;;;;;5098982;27;87111;-40
2023/04/11 01:51:31;;;;;;;;;;;8.00;72.20;;;;;;5103252;27;87001;-41
2023/04/11 01:53:56;;;;;;;;;;;8.00;72.30;;;;;;5102486;27;88017;-41
2023/04/11 01:56:22;;;;;;;;;;;7.90;72.30;;;;;;5102912;27;87181;-41
2023/04/11 01:58:47;;;;;;;;;;;7.90;72.30;;;;;;5103505;27;88738;-41
2023/04/11 02:01:15;;;;;;;;;;;7.90;72.40;;;;;;5102552;27;89433;-41
2023/04/11 02:03:41;;;;;;;;;;;7.90;73.00;;;;;;5102356;27;87165;-41
2023/04/11 02:06:06;;;;;;;;;;;7.90;72.30;;;;;;5102030;27;88391;-41
2023/04/11 02:08:32;;;;;;;;;;;7.90;72.30;;;;;;5105135;27;88505;-41
2023/04/11 02:10:57;;;;;;;;;;;7.90;72.30;;;;;;5102729;27;88896;-41
2023/04/11 02:13:23;;;;;;;;;;;7.90;72.30;;;;;;5101843;27;89393;-41
2023/04/11 02:15:48;;;;;;;;;;;7.90;72.20;;;;;;5102887;27;87203;-41
2023/04/11 02:18:14;;;;;;;;;;;7.90;72.40;;;;;;5102952;27;87495;-41
2023/04/11 02:20:39;;;;;;;;;;;7.90;72.40;;;;;;5102522;27;87909;-41
2023/04/11 02:23:05;;;;;;;;;;;7.90;72.30;;;;;;5102943;27;86397;-41
2023/04/11 02:25:31;;;;;;;;;;;7.90;72.30;;;;;;5102333;27;87876;-41
2023/04/11 02:27:56;;;;;;;;;;;7.90;72.30;;;;;;5101755;27;88579;-41
2023/04/11 02:30:22;;;;;;;;;;;7.90;72.30;;;;;;5104769;27;88104;-41
2023/04/11 02:32:50;;;;;;;;;;;7.90;72.30;;;;;;5102202;27;88146;-41
2023/04/11 02:35:16;;;;;;;;;;;7.90;72.30;;;;;;5102460;27;87191;-41
2023/04/11 02:37:42;;;;;;;;;;;7.90;72.30;;;;;;5102792;27;88152;-41
2023/04/11 02:40:08;;;;;;;;;;;7.90;72.30;;;;;;5101480;27;88362;-41
2023/04/11 02:42:34;;;;;;;;;;;7.90;72.40;;;;;;5102423;27;87067;-41
2023/04/11 02:44:59;;;;;;;;;;;7.80;72.40;;;;;;5097914;27;88951;-41
2023/04/11 02:47:25;;;;;;;;;;;7.80;72.40;;;;;;5102123;27;88666;-41
2023/04/11 02:49:50;;;;;;;;;;;7.80;72.50;;;;;;5102110;27;87097;-41
2023/04/11 02:52:16;;;;;;;;;;;7.80;72.50;;;;;;5104881;27;87452;-41
2023/04/11 02:54:42;;;;;;;;;;;7.80;72.50;;;;;;5101266;27;88038;-41
2023/04/11 02:57:08;;;;;;;;;;;7.80;72.50;;;;;;5102367;27;88218;-41
2023/04/11 02:59:33;;;;;;;;;;;7.80;72.40;;;;;;5101715;27;88178;-41
2023/04/11 03:01:59;;;;;;;;;;;7.80;72.40;;;;;;5102132;27;87530;-41
2023/04/11 03:04:25;;;;;;;;;;;7.80;72.40;;;;;;5101559;27;88718;-41
2023/04/11 03:06:51;;;;;;;;;;;7.80;72.50;;;;;;5101950;27;88188;-41
2023/04/11 03:09:16;;;;;;;;;;;7.80;72.40;;;;;;5101892;27;87164;-41
2023/04/11 03:11:42;;;;;;;;;;;7.70;72.50;;;;;;5102235;27;87819;-41
2023/04/11 03:14:07;;;;;;;;;;;7.70;72.60;;;;;;5103580;27;89907;-41
2023/04/11 03:16:33;;;;;;;;;;;7.70;72.60;;;;;;5101823;27;89219;-40
2023/04/11 03:18:58;;;;;;;;;;;7.70;72.60;;;;;;5101318;27;90300;-41
2023/04/11 03:21:24;;;;;;;;;;;7.70;72.50;;;;;;5105477;27;87496;-41
2023/04/11 03:23:50;;;;;;;;;;;7.70;72.50;;;;;;5105264;27;87704;-41
2023/04/11 03:26:15;;;;;;;;;;;7.80;72.40;;;;;;5104359;27;89900;-41
2023/04/11 03:28:41;;;;;;;;;;;7.80;72.50;;;;;;5104697;27;87193;-41
2023/04/11 03:31:06;;;;;;;;;;;7.70;72.50;;;;;;5105015;27;88783;-41
2023/04/11 03:33:32;;;;;;;;;;;7.70;72.50;;;;;;5104623;27;88870;-41
2023/04/11 03:35:57;;;;;;;;;;;7.80;72.50;;;;;;5108324;27;86377;-41
2023/04/11 03:38:23;;;;;;;;;;;7.80;72.50;;;;;;5105178;27;88125;-41
2023/04/11 03:40:49;;;;;;;;;;;7.70;72.50;;;;;;5104757;27;87054;-40
2023/04/11 03:43:16;;;;;;;;;;;7.70;72.50;;;;;;5104141;27;89038;-41
2023/04/11 03:45:41;;;;;;;;;;;7.70;72.50;;;;;;5100579;27;89504;-41
2023/04/11 03:48:07;;;;;;;;;;;7.70;72.50;;;;;;5104597;27;87078;-41
2023/04/11 03:50:32;;;;;;;;;;;7.70;72.50;;;;;;5104682;27;87622;-41
2023/04/11 03:52:58;;;;;;;;;;;7.70;72.50;;;;;;5104374;27;89881;-41
2023/04/11 03:55:24;;;;;;;;;;;7.70;72.50;;;;;;5107357;27;87326;-41
2023/04/11 03:57:50;;;;;;;;;;;7.70;72.50;;;;;;5104256;27;89446;-41
2023/04/11 04:00:17;;;;;;;;;;;7.70;72.60;;;;;;5101114;27;86417;-41
2023/04/11 04:02:42;;;;;;;;;;;7.70;72.60;;;;;;5104662;27;87206;-41
2023/04/11 04:05:08;;;;;;;;;;;7.70;72.50;;;;;;5104103;27;89636;-41
2023/04/11 04:07:34;;;;;;;;;;;7.70;72.50;;;;;;5104286;27;89047;-41
2023/04/11 04:09:59;;;;;;;;;;;7.70;72.60;;;;;;5103831;27;90010;-41
2023/04/11 04:12:25;;;;;;;;;;;7.70;72.50;;;;;;5103870;27;88433;-41
2023/04/11 04:14:50;;;;;;;;;;;7.70;72.40;;;;;;5103916;27;87312;-41
2023/04/11 04:17:16;;;;;;;;;;;7.70;72.40;;;;;;5107282;27;88815;-41
2023/04/11 04:19:42;;;;;;;;;;;7.70;72.50;;;;;;5104846;27;87178;-41
2023/04/11 04:22:11;;;;;;;;;;;7.70;72.40;;;;;;5100582;27;87851;-41
2023/04/11 04:24:38;;;;;;;;;;;7.70;72.40;;;;;;5103861;27;88782;-41
2023/04/11 04:27:09;;;;;;;;;;;7.60;72.40;;;;;;5104028;27;87182;-41
2023/04/11 04:29:45;;;;;;;;;;;7.60;72.40;;;;;;5104079;27;88693;-41
2023/04/11 04:32:10;;;;;;;;;;;7.70;72.40;;;;;;5102224;27;90766;-41
2023/04/11 04:34:45;;;;;;;;;;;7.70;72.40;;;;;;5103870;27;87088;-41
2023/04/11 04:37:20;;;;;;;;;;;7.60;72.40;;;;;;5103572;27;87580;-41
2023/04/11 04:39:49;;;;;;;;;;;7.60;72.40;;;;;;5106213;27;89897;-41
2023/04/11 04:42:16;;;;;;;;;;;7.60;72.40;;;;;;5103632;27;88775;-41
2023/04/11 04:44:41;;;;;;;;;;;7.70;72.40;;;;;;5103361;27;89198;-40
2023/04/11 04:47:07;;;;;;;;;;;7.60;72.40;;;;;;5103547;27;87110;-41
2023/04/11 04:49:32;;;;;;;;;;;7.60;72.40;;;;;;5104363;27;87513;-41
2023/04/11 04:51:58;;;;;;;;;;;7.60;72.30;;;;;;5103034;27;89138;-41
2023/04/11 04:54:23;;;;;;;;;;;7.60;72.30;;;;;;5099294;27;87120;-41
2023/04/11 04:56:49;;;;;;;;;;;7.70;72.30;;;;;;5102670;27;88898;-41
2023/04/11 04:59:15;;;;;;;;;;;7.60;72.30;;;;;;5103013;27;89549;-41
2023/04/11 05:01:41;;;;;;;;;;;7.60;72.40;;;;;;5106501;27;87126;-41
2023/04/11 05:04:06;;;;;;;;;;;7.60;72.30;;;;;;5103410;27;89648;-41
2023/04/11 05:06:32;;;;;;;;;;;7.60;72.40;;;;;;5103681;27;87233;-41
2023/04/11 05:08:58;;;;;;;;;;;7.60;72.30;;;;;;5103774;27;89613;-41
2023/04/11 05:11:27;;;;;;;;;;;7.60;72.30;;;;;;5103321;27;89136;-41
2023/04/11 05:13:53;;;;;;;;;;;7.60;72.30;;;;;;5103137;27;86473;-41
2023/04/11 05:16:19;;;;;;;;;;;7.60;72.40;;;;;;5103200;27;87963;-41
2023/04/11 05:18:45;;;;;;;;;;;7.60;72.40;;;;;;5102576;27;89201;-41
2023/04/11 05:21:12;;;;;;;;;;;7.60;72.30;;;;;;5102321;27;88007;-41
2023/04/11 05:23:37;;;;;;;;;;;7.60;72.30;;;;;;5105844;27;89420;-41
2023/04/11 05:26:03;;;;;;;;;;;7.60;72.30;;;;;;5103220;27;87021;-40
2023/04/11 05:28:30;;;;;;;;;;;7.60;72.40;;;;;;5103313;27;87956;-40
2023/04/11 05:30:56;;;;;;;;;;;7.60;72.40;;;;;;5102866;27;88282;-41
2023/04/11 05:33:22;;;;;;;;;;;7.60;72.40;;;;;;5102713;27;87104;-41
2023/04/11 05:35:47;;;;;;;;;;;7.60;72.40;;;;;;5102979;27;88575;-40
2023/04/11 05:38:13;;;;;;;;;;;7.60;72.90;;;;;;5098846;27;89016;-40
2023/04/11 05:40:38;;;;;;;;;;;7.60;72.30;;;;;;5102765;27;87144;-40
2023/04/11 05:43:04;;;;;;;;;;;7.60;72.40;;;;;;5104979;27;88679;-41
2023/04/11 05:45:29;;;;;;;;;;;7.60;72.40;;;;;;5102339;27;88457;-40
2023/04/11 05:47:55;;;;;;;;;;;7.60;72.40;;;;;;5103391;27;89701;-40
2023/04/11 05:50:21;;;;;;;;;;;7.60;72.30;;;;;;5102632;27;89346;-40
2023/04/11 05:52:46;;;;;;;;;;;7.60;72.30;;;;;;5103023;27;87100;-40
2023/04/11 05:55:12;;;;;;;;;;;7.60;72.30;;;;;;5103077;27;88829;-40
2023/04/11 05:57:38;;;;;;;;;;;7.50;72.50;;;;;;5102599;27;88318;-40
2023/04/11 06:00:15;;;;;;;;;;;7.60;72.30;;;;;;5102914;27;87097;-40
2023/04/11 06:02:41;;;;;;;;;;;7.60;72.30;;;;;;5099685;27;86469;-40
2023/04/11 06:05:07;;;;;;;;;;;7.50;72.30;;;;;;5105025;27;89178;-40
2023/04/11 06:07:34;;;;;;;;;;;7.60;72.30;;;;;;5102677;27;88686;-40
2023/04/11 06:10:00;;;;;;;;;;;7.60;72.30;;;;;;5101908;27;90274;-40
2023/04/11 06:12:25;;;;;;;;;;;7.60;72.30;;;;;;5102697;27;87649;-41
2023/04/11 06:14:51;;;;;;;;;;;7.60;72.30;;;;;;5102227;27;88903;-40
2023/04/11 06:17:16;;;;;;;;;;;7.50;72.40;;;;;;5102411;27;89616;-40
2023/04/11 06:19:42;;;;;;;;;;;7.60;72.30;;;;;;5102509;27;88074;-41
2023/04/11 06:22:07;;;;;;;;;;;7.60;72.30;;;;;;5102437;27;88855;-40
2023/04/11 06:24:34;;;;;;;;;;;7.60;72.30;;;;;;5102328;27;88210;-40
2023/04/11 06:26:59;;;;;;;;;;;7.60;72.30;;;;;;5106257;27;86415;-40
2023/04/11 06:29:25;;;;;;;;;;;7.60;72.30;;;;;;5102420;27;89508;-40
2023/04/11 06:31:50;;;;;;;;;;;7.60;72.30;;;;;;5103122;27;87156;-41
2023/04/11 06:34:16;;;;;;;;;;;7.50;72.20;;;;;;5101660;27;88911;-41
2023/04/11 06:36:41;;;;;;;;;;;7.60;72.20;;;;;;5102218;27;87923;-40
2023/04/11 06:39:08;;;;;;;;;;;7.60;72.20;;;;;;5102917;27;87010;-40
2023/04/11 06:41:35;;;;;;;;;;;7.60;72.30;;;;;;5098473;27;88909;-40
2023/04/11 06:44:00;;;;;;;;;;;7.60;72.30;;;;;;5101984;27;89509;-40
2023/04/11 06:46:26;;;;;;;;;;;7.60;72.30;;;;;;5102525;27;87857;-41
2023/04/11 06:48:51;;;;;;;;;;;7.50;72.30;;;;;;5104604;27;87393;-40
2023/04/11 06:51:17;;;;;;;;;;;7.50;72.30;;;;;;5102599;27;86407;-40
2023/04/11 06:53:42;;;;;;;;;;;7.60;72.40;;;;;;5102359;27;88575;-40
2023/04/11 06:56:08;;;;;;;;;;;7.60;72.40;;;;;;5105296;27;88747;-41
2023/04/11 06:58:33;;;;;;;;;;;7.60;72.30;;;;;;5104631;27;88725;-40
2023/04/11 07:00:59;;;;;;;;;;;7.60;72.30;;;;;;5105028;27;90264;-40
2023/04/11 07:03:25;;;;;;;;;;;7.60;72.30;;;;;;5100860;27;88100;-41
2023/04/11 07:05:50;;;;;;;;;;;7.60;72.50;;;;;;5105077;27;87356;-41
2023/04/11 07:08:16;;;;;;;;;;;7.60;72.40;;;;;;5105220;27;88661;-41
2023/04/11 07:10:41;;;;;;;;;;;7.60;72.30;;;;;;5108382;27;87174;-40
2023/04/11 07:13:07;;;;;;;;;;;7.60;72.30;;;;;;5105451;27;88759;-40
2023/04/11 07:15:32;;;;;;;;;;;7.60;72.40;;;;;;5105522;27;87922;-40
2023/04/11 07:17:58;;;;;;;;;;;7.60;73.00;;;;;;5105411;27;87154;-40
2023/04/11 07:20:24;;;;;;;;;;;7.60;72.40;;;;;;5105586;27;87127;-41
2023/04/11 07:22:51;;;;;;;;;;;7.60;72.30;;;;;;5104426;27;90031;-40
2023/04/11 07:25:21;;;;;;;;;;;7.60;72.30;;;;;;5105301;27;87445;-40
2023/04/11 07:27:48;;;;;;;;;;;7.70;72.40;;;;;;5105566;27;88992;-40
2023/04/11 07:30:14;;;;;;;;;;;7.70;72.50;;;;;;5104780;27;89407;-40
2023/04/11 07:32:40;;;;;;;;;;;7.60;72.50;;;;;;5108034;27;87496;-40
2023/04/11 07:35:05;;;;;;;;;;;7.70;72.50;;;;;;5104303;27;89166;-41
2023/04/11 07:37:31;;;;;;;;;;;7.60;72.40;;;;;;5105609;27;87155;-42
2023/04/11 07:39:56;;;;;;;;;;;7.70;72.40;;;;;;5105488;27;89050;-41
2023/04/11 07:42:22;;;;;;;;;;;7.60;72.40;;;;;;5104776;27;89624;-42
2023/04/11 07:44:47;;;;;;;;;;;7.70;72.40;;;;;;5104807;27;87272;-42
2023/04/11 07:47:13;;;;;;;;;;;7.60;72.60;;;;;;5104002;27;88861;-42
2023/04/11 07:49:38;;;;;;;;;;;7.70;72.50;;;;;;5104111;27;88372;-42
2023/04/11 07:52:04;;;;;;;;;;;7.70;72.50;;;;;;5107332;27;88042;-42
2023/04/11 07:54:30;;;;;;;;;;;7.70;72.30;;;;;;5104083;27;89477;-42
2023/04/11 07:56:55;;;;;;;;;;;7.60;72.40;;;;;;5104938;27;87136;-42
2023/04/11 07:59:21;;;;;;;;;;;7.60;72.40;;;;;;5104262;27;87612;-42
2023/04/11 08:01:46;;;;;;;;;;;7.70;72.40;;;;;;5103773;27;89011;-42
2023/04/11 08:04:12;;;;;;;;;;;7.70;72.50;;;;;;5104319;27;86998;-42
2023/04/11 08:06:38;;;;;;;;;;;7.70;72.20;;;;;;5104583;27;87006;-42
2023/04/11 08:09:04;;;;;;;;;;;7.70;72.20;;;;;;5103898;27;89511;-42
2023/04/11 08:11:30;;;;;;;;;;;7.70;72.20;;;;;;5103781;27;88056;-42
2023/04/11 08:13:55;;;;;;;;;;;7.70;72.10;;;;;;5106614;27;89938;-42
2023/04/11 08:16:21;;;;;;;;;;;7.80;72.10;;;;;;5104419;27;87105;-42
2023/04/11 08:18:46;;;;;;;;;;;7.70;72.10;;;;;;5104124;27;88820;-42
2023/04/11 08:21:12;;;;;;;;;;;7.70;72.20;;;;;;5103806;27;89388;-42
2023/04/11 08:23:41;;;;;;;;;;;7.70;72.30;;;;;;5103964;27;87198;-42
2023/04/11 08:26:07;;;;;;;;;;;7.70;72.40;;;;;;5104216;27;87293;-42
2023/04/11 08:28:33;;;;;;;;;;;7.70;72.50;;;;;;5104255;27;87332;-42
2023/04/11 08:31:01;;;;;;;;;;;7.70;72.70;;;;;;5103932;27;87428;-42
2023/04/11 08:33:26;;;;;;;;;;;7.60;72.60;;;;;;5104006;27;88909;-42
2023/04/11 08:35:52;;;;;;;;;;;7.60;72.70;;;;;;5106103;27;89992;-43
2023/04/11 08:38:17;;;;;;;;;;;7.60;72.50;;;;;;5103840;27;89670;-42
2023/04/11 08:40:43;;;;;;;;;;;7.70;72.70;;;;;;5103719;27;89453;-42
2023/04/11 08:43:11;;;;;;;;;;;7.70;72.70;;;;;;5104050;27;87458;-42
2023/04/11 08:45:39;;;;;;;;;;;7.70;72.60;;;;;;5103305;27;88646;-42
2023/04/11 08:48:05;;;;;;;;;;;7.70;72.80;;;;;;5103100;27;89376;-42
2023/04/11 08:50:31;;;;;;;;;;;7.70;72.80;;;;;;5103903;27;87332;-42
2023/04/11 08:53:00;;;;;;;;;;;7.70;73.00;;;;;;5104161;27;88680;-42
2023/04/11 08:55:25;;;;;;;;;;;7.70;72.90;;;;;;5098806;27;88674;-42
2023/04/11 08:57:52;;;;;;;;;;;7.70;72.70;;;;;;5106824;27;87108;-42
2023/04/11 09:00:22;;;;;;;;;;;7.70;73.50;;;;;;5102739;27;90128;-42
2023/04/11 09:03:03;;;;;;;;;;;7.70;73.00;;;;;;5103253;27;87175;-42
2023/04/11 09:05:30;;;;;;;;;;;7.70;72.90;;;;;;5101181;27;88775;-43
2023/04/11 09:07:57;;;;;;;;;;;7.70;72.90;;;;;;5102806;27;89794;-42
2023/04/11 09:10:23;;;;;;;;;;;7.70;73.10;;;;;;5103355;27;86973;-42
2023/04/11 09:12:49;;;;;;;;;;;7.70;73.00;;;;;;5099441;27;87335;-42
2023/04/11 09:15:19;;;;;;;;;;;7.70;73.10;;;;;;5102017;27;88285;-42
2023/04/11 09:17:45;;;;;;;;;;;7.70;73.30;;;;;;5102177;27;86354;-42
2023/04/11 09:20:16;;;;;;;;;;;7.70;73.30;;;;;;5105609;27;88322;-42
2023/04/11 09:22:42;;;;;;;;;;;7.70;73.20;;;;;;5098829;27;87168;-42
2023/04/11 09:25:08;;;;;;;;;;;7.70;73.30;;;;;;5102213;27;88916;-42
2023/04/11 09:27:33;;;;;;;;;;;7.70;73.40;;;;;;5102797;27;90042;-42
2023/04/11 09:30:01;;;;;;;;;;;7.70;73.80;;;;;;5103248;27;87129;-42
2023/04/11 09:32:27;;;;;;;;;;;7.80;73.40;;;;;;5102677;27;88838;-42
2023/04/11 09:35:09;;;;;;;;;;;7.80;73.20;;;;;;5101699;27;89169;-42
2023/04/11 09:37:45;;;;;;;;;;;7.80;73.20;;;;;;5102673;27;87544;-42
2023/04/11 09:40:11;;;;;;;;;;;7.80;73.00;;;;;;5098921;27;87706;-42
2023/04/11 09:42:37;;;;;;;;;;;7.80;73.00;;;;;;5105281;27;87785;-42
2023/04/11 09:45:03;;;;;;;;;;;7.80;73.20;;;;;;5102657;27;87926;-42
2023/04/11 09:47:32;;;;;;;;;;;7.80;73.30;;;;;;5102611;27;89398;-42
2023/04/11 09:49:58;;;;;;;;;;;7.80;73.10;;;;;;5102282;27;88364;-42
2023/04/11 09:52:23;;;;;;;;;;;7.80;73.00;;;;;;5102777;27;89905;-42
2023/04/11 09:54:49;;;;;;;;;;;7.90;73.10;;;;;;5102100;27;89979;-42
2023/04/11 09:57:16;;;;;;;;;;;7.80;73.10;;;;;;5102715;27;87583;-42
2023/04/11 09:59:42;;;;;;;;;;;7.90;73.20;;;;;;5102616;27;88691;-42
2023/04/11 10:02:08;;;;;;;;;;;7.90;72.90;;;;;;5104398;27;89347;-42
2023/04/11 10:04:34;;;;;;;;;;;7.90;72.90;;;;;;5102010;27;88882;-42
2023/04/11 10:07:05;;;;;;;;;;;7.90;73.00;;;;;;5102244;27;88642;-42
2023/04/11 10:09:32;;;;;;;;;;;7.90;73.30;;;;;;5102227;27;87181;-42
2023/04/11 10:11:57;;;;;;;;;;;7.90;72.90;;;;;;5102237;27;88973;-42
2023/04/11 10:14:35;;;;;;;;;;;7.90;73.00;;;;;;5100195;27;90454;-42
2023/04/11 10:17:10;;;;;;;;;;;7.90;73.10;;;;;;5099502;27;87456;-42
2023/04/11 10:19:36;;;;;;;;;;;7.90;72.90;;;;;;5102128;27;89097;-42
2023/04/11 10:22:01;;;;;;;;;;;7.90;72.90;;;;;;5101670;27;89176;-42
2023/04/11 10:24:27;;;;;;;;;;;7.90;73.00;;;;;;5105418;27;87225;-42
2023/04/11 10:26:52;;;;;;;;;;;7.90;73.00;;;;;;5102494;27;88487;-42
2023/04/11 10:29:27;;;;;;;;;;;8.00;73.20;;;;;;5104912;27;87078;-42
2023/04/11 10:32:11;;;;;;;;;;;7.90;73.10;;;;;;5106201;27;88569;-42
2023/04/11 10:34:38;;;;;;;;;;;7.90;73.30;;;;;;5105499;27;88302;-42
2023/04/11 10:37:07;;;;;;;;;;;7.90;73.30;;;;;;5105978;27;87223;-42
2023/04/11 10:39:52;;;;;;;;;;;7.90;73.30;;;;;;5105150;27;88554;-42
2023/04/11 10:42:30;;;;;;;;;;;7.90;73.30;;;;;;5101133;27;88477;-42
2023/04/11 10:45:14;;;;;;;;;;;7.90;73.30;;;;;;5105584;27;87222;-42
2023/04/11 10:47:40;;;;;;;;;;;7.90;73.30;;;;;;5105929;27;88149;-42
2023/04/11 10:50:24;;;;;;;;;;;8.00;73.40;;;;;;5105804;27;87055;-42
2023/04/11 10:52:50;;;;;;;;;;;8.00;73.20;;;;;;5103288;27;89419;-42
2023/04/11 10:55:16;;;;;;;;;;;8.00;73.40;;;;;;5105030;27;89349;-42
2023/04/11 10:58:00;;;;;;;;;;;7.90;73.20;;;;;;5105390;27;86934;-42
2023/04/11 11:00:26;;;;;;;;;;;8.00;73.50;;;;;;5104039;27;87083;-42
2023/04/11 11:02:52;;;;;;;;;;;8.10;73.10;;;;;;5104398;27;89691;-42
2023/04/11 11:05:19;;;;;;;;;;;8.00;73.10;;;;;;5104234;27;88046;-42
2023/04/11 11:07:45;;;;;;;;;;;8.00;73.20;;;;;;5105007;27;89788;-42
2023/04/11 11:10:11;;;;;;;;;;;8.10;73.10;;;;;;5107711;27;88260;-42
2023/04/11 11:12:37;;;;;;;;;;;8.10;73.00;;;;;;5105506;27;87619;-42
2023/04/11 11:15:12;;;;;;;;;;;8.20;72.90;;;;;;5104179;27;88372;-42
2023/04/11 11:17:37;;;;;;;;;;;8.20;72.80;;;;;;5101254;27;87217;-42
2023/04/11 11:20:08;;;;;;;;;;;8.10;72.90;;;;;;5105152;27;88673;-42
2023/04/11 11:22:34;;;;;;;;;;;8.10;73.20;;;;;;5104667;27;88539;-42
2023/04/11 11:25:07;;;;;;;;;;;8.00;73.30;;;;;;5104799;27;87493;-42
2023/04/11 11:27:33;;;;;;;;;;;8.00;73.60;;;;;;5101524;27;87789;-42
2023/04/11 11:30:08;;;;;;;;;;;8.00;74.30;;;;;;5104008;27;90422;-42
2023/04/11 11:32:33;;;;;;;;;;;8.00;73.60;;;;;;5107356;27;87082;-42
2023/04/11 11:34:59;;;;;;;;;;;8.00;73.80;;;;;;5103793;27;89340;-42
2023/04/11 11:37:25;;;;;;;;;;;8.00;73.60;;;;;;5104476;27;87180;-42
2023/04/11 11:39:50;;;;;;;;;;;8.00;73.60;;;;;;5104270;27;88632;-42
2023/04/11 11:42:16;;;;;;;;;;;8.00;73.90;;;;;;5100266;27;89391;-42
2023/04/11 11:44:41;;;;;;;;;;;8.00;73.80;;;;;;5104772;27;87096;-42
2023/04/11 11:47:16;;;;;;;;;;;8.00;73.80;;;;;;5105175;27;88868;-42
2023/04/11 11:49:45;;;;;;;;;;;8.00;73.70;;;;;;5101153;27;89538;-43
2023/04/11 11:52:11;;;;;;;;;;;8.00;73.80;;;;;;5104090;27;87361;-42
2023/04/11 11:54:44;;;;;;;;;;;8.00;73.80;;;;;;5107099;27;88229;-42
2023/04/11 11:57:09;;;;;;;;;;;8.10;73.60;;;;;;5101509;27;87498;-42
2023/04/11 11:59:35;;;;;;;;;;;8.20;73.40;;;;;;5104204;27;87966;-42
2023/04/11 12:02:01;;;;;;;;;;;8.20;73.60;;;;;;5103528;27;88677;-42
2023/04/11 12:04:27;;;;;;;;;;;8.20;73.50;;;;;;5103745;27;87263;-42
2023/04/11 12:06:53;;;;;;;;;;;8.10;73.60;;;;;;5104402;27;88797;-42
2023/04/11 12:09:19;;;;;;;;;;;8.10;73.60;;;;;;5103591;27;90117;-42
2023/04/11 12:11:44;;;;;;;;;;;8.10;74.00;;;;;;5104067;27;86295;-42
2023/04/11 12:14:20;;;;;;;;;;;8.10;74.00;;;;;;5106094;27;87847;-42
2023/04/11 12:16:45;;;;;;;;;;;8.10;74.00;;;;;;5104301;27;87572;-42
2023/04/11 12:19:11;;;;;;;;;;;8.10;73.90;;;;;;5103072;27;89141;-42
2023/04/11 12:21:37;;;;;;;;;;;8.10;74.20;;;;;;5104112;27;88016;-42
2023/04/11 12:24:02;;;;;;;;;;;8.10;74.20;;;;;;5103982;27;87077;-42
2023/04/11 12:26:28;;;;;;;;;;;8.20;74.10;;;;;;5103894;27;87345;-42
2023/04/11 12:28:53;;;;;;;;;;;8.10;74.20;;;;;;5103233;27;89161;-42
2023/04/11 12:31:20;;;;;;;;;;;8.10;74.30;;;;;;5103683;27;87192;-42
2023/04/11 12:33:45;;;;;;;;;;;8.10;74.30;;;;;;5103514;27;88732;-42
2023/04/11 12:36:11;;;;;;;;;;;8.10;74.50;;;;;;5107021;27;88428;-42
2023/04/11 12:38:37;;;;;;;;;;;8.10;74.60;;;;;;5103599;27;87992;-42
2023/04/11 12:41:02;;;;;;;;;;;8.10;74.50;;;;;;5102790;27;89477;-42
2023/04/11 12:43:28;;;;;;;;;;;8.10;74.20;;;;;;5103339;27;87949;-42
2023/04/11 12:45:53;;;;;;;;;;;8.10;74.60;;;;;;5103359;27;88332;-42
2023/04/11 12:48:19;;;;;;;;;;;8.10;74.50;;;;;;5102895;27;89447;-42
2023/04/11 12:50:44;;;;;;;;;;;8.10;74.40;;;;;;5103198;27;87134;-42
2023/04/11 12:53:10;;;;;;;;;;;8.10;74.50;;;;;;5102859;27;88849;-42
2023/04/11 12:55:35;;;;;;;;;;;8.10;74.50;;;;;;5103159;27;89671;-42
2023/04/11 12:58:01;;;;;;;;;;;8.20;75.00;;;;;;5106305;27;87419;-42
2023/04/11 13:00:27;;;;;;;;;;;8.20;74.60;;;;;;5103998;27;88891;-42
2023/04/11 13:02:53;;;;;;;;;;;8.10;74.50;;;;;;5103555;27;87144;-42
2023/04/11 13:05:20;;;;;;;;;;;8.10;74.50;;;;;;5102793;27;88627;-42
2023/04/11 13:07:45;;;;;;;;;;;8.20;74.30;;;;;;5102067;27;90630;-42
2023/04/11 13:10:12;;;;;;;;;;;8.20;74.40;;;;;;5103298;27;87197;-42
2023/04/11 13:12:43;;;;;;;;;;;8.20;74.50;;;;;;5103281;27;88889;-42
2023/04/11 13:15:10;;;;;;;;;;;8.20;74.40;;;;;;5102737;27;89217;-42
2023/04/11 13:17:35;;;;;;;;;;;8.20;74.10;;;;;;5099539;27;87608;-42
2023/04/11 13:20:01;;;;;;;;;;;8.20;74.30;;;;;;5105552;27;89670;-42
2023/04/11 13:22:26;;;;;;;;;;;8.20;74.20;;;;;;5103487;27;87153;-42
2023/04/11 13:24:52;;;;;;;;;;;8.30;73.80;;;;;;5103161;27;87166;-42
2023/04/11 13:27:17;;;;;;;;;;;8.20;73.60;;;;;;5102315;27;89817;-42
2023/04/11 13:29:43;;;;;;;;;;;8.30;74.10;;;;;;5102672;27;87092;-42
2023/04/11 13:32:08;;;;;;;;;;;8.20;74.30;;;;;;5101892;27;88870;-42
2023/04/11 13:34:34;;;;;;;;;;;8.30;73.90;;;;;;5102787;27;88038;-42
2023/04/11 13:37:00;;;;;;;;;;;8.30;74.20;;;;;;5102705;27;87203;-42
2023/04/11 13:39:26;;;;;;;;;;;8.30;73.70;;;;;;5102539;27;88767;-42
2023/04/11 13:41:51;;;;;;;;;;;8.30;73.80;;;;;;5105151;27;89218;-42
2023/04/11 13:44:17;;;;;;;;;;;8.30;74.10;;;;;;5102744;27;87604;-42
2023/04/11 13:46:42;;;;;;;;;;;8.30;73.90;;;;;;5101809;27;89226;-42
2023/04/11 13:49:07;;;;;;;;;;;8.30;74.10;;;;;;5102755;27;86429;-42
2023/04/11 13:51:33;;;;;;;;;;;8.30;74.20;;;;;;5102473;27;88398;-42
2023/04/11 13:53:59;;;;;;;;;;;8.30;74.20;;;;;;5102164;27;89318;-42
2023/04/11 13:56:25;;;;;;;;;;;8.30;74.10;;;;;;5101849;27;88044;-42
2023/04/11 13:58:51;;;;;;;;;;;8.30;74.20;;;;;;5102345;27;89545;-42
2023/04/11 14:01:18;;;;;;;;;;;8.30;74.20;;;;;;5102148;27;88270;-42
2023/04/11 14:03:45;;;;;;;;;;;8.40;74.00;;;;;;5100482;27;87144;-42
2023/04/11 14:06:10;;;;;;;;;;;8.40;74.00;;;;;;5101700;27;89651;-42
2023/04/11 14:08:36;;;;;;;;;;;8.40;73.80;;;;;;5102419;27;86965;-42
2023/04/11 14:11:01;;;;;;;;;;;8.40;73.60;;;;;;5102225;27;88863;-42
2023/04/11 14:13:27;;;;;;;;;;;8.40;74.00;;;;;;5101664;27;87322;-42
2023/04/11 14:15:52;;;;;;;;;;;8.40;73.70;;;;;;5102488;27;87145;-42
2023/04/11 14:18:18;;;;;;;;;;;8.40;74.00;;;;;;5093731;27;88963;-42
2023/04/11 14:20:43;;;;;;;;;;;8.40;74.10;;;;;;5101564;27;89010;-42
2023/04/11 14:23:09;;;;;;;;;;;8.50;74.10;;;;;;5105203;27;87205;-42
2023/04/11 14:25:35;;;;;;;;;;;8.50;74.20;;;;;;5101818;27;89435;-42
2023/04/11 14:28:00;;;;;;;;;;;8.50;73.60;;;;;;5101698;27;87164;-42